createdAt,value
2023-04-21T00:02:05.300Z,29.92
2023-04-21T00:04:33.672Z,28.88
2023-04-21T00:07:04.866Z,31.48
2023-04-21T00:09:32.104Z,32.28
2023-04-21T00:11:59.858Z,32.03
2023-04-21T00:14:27.436Z,38.78
2023-04-21T00:16:54.838Z,36.35
2023-04-21T00:19:24.432Z,39.05
2023-04-21T00:21:52.214Z,32.40
2023-04-21T00:24:19.722Z,33.75
2023-04-21T00:26:47.208Z,35.22
2023-04-21T00:29:19.095Z,33.25
2023-04-21T00:31:46.825Z,26.50
2023-04-21T00:34:15.217Z,31.02
2023-04-21T00:36:42.802Z,34.15
2023-04-21T00:39:10.132Z,31.20
2023-04-21T00:41:38.961Z,30.77
2023-04-21T00:44:07.575Z,26.77
2023-04-21T00:46:36.125Z,27.52
2023-04-21T00:49:08.218Z,26.50
2023-04-21T00:51:37.779Z,25.67
2023-04-21T00:54:06.766Z,51.40
2023-04-21T00:56:35.698Z,25.17
2023-04-21T00:59:04.067Z,26.25
2023-04-21T01:01:34.583Z,25.75
2023-04-21T01:04:04.210Z,22.83
2023-04-21T01:06:32.634Z,21.80
2023-04-21T01:09:00.468Z,21.45
2023-04-21T01:11:30.191Z,27.10
2023-04-21T01:13:57.658Z,207.05
2023-04-21T01:16:25.146Z,486.45
2023-04-21T01:18:53.708Z,34.25
2023-04-21T01:21:29.282Z,25.58
2023-04-21T01:24:09.011Z,96.90
2023-04-21T01:26:36.365Z,67.18
2023-04-21T01:29:04.938Z,26.98
2023-04-21T01:31:32.496Z,24.02
2023-04-21T01:34:05.132Z,24.23
2023-04-21T01:36:33.542Z,18.53
2023-04-21T01:39:01.950Z,29.08
2023-04-21T01:41:29.336Z,23.70
2023-04-21T01:43:57.147Z,42.30
2023-04-21T01:46:28.002Z,25.02
2023-04-21T01:49:16.182Z,28.45
2023-04-21T01:52:00.187Z,31.27
2023-04-21T01:54:30.688Z,58.33
2023-04-21T02:00:49.303Z,39.50
2023-04-21T02:07:54.593Z,38.05
2023-04-21T02:10:22.170Z,34.08
2023-04-21T02:12:49.502Z,55.70
2023-04-21T02:15:16.952Z,234.50
2023-04-21T02:17:45.221Z,160.80
2023-04-21T02:20:14.021Z,187.60
2023-04-21T02:22:41.441Z,113.70
2023-04-21T02:25:09.540Z,32.72
2023-04-21T02:27:42.389Z,27.17
2023-04-21T02:30:11.275Z,25.05
2023-04-21T02:32:44.565Z,26.80
2023-04-21T02:35:13.331Z,24.58
2023-04-21T02:37:40.457Z,26.10
2023-04-21T02:40:09.643Z,27.77
2023-04-21T02:42:37.878Z,24.42
2023-04-21T02:45:05.722Z,26.60
2023-04-21T02:47:33.813Z,27.85
2023-04-21T02:50:01.260Z,29.45
2023-04-21T02:52:28.769Z,27.98
2023-04-21T02:54:56.136Z,29.60
2023-04-21T02:57:23.676Z,27.52
2023-04-21T02:59:51.733Z,27.00
2023-04-21T03:02:19.184Z,32.47
2023-04-21T03:04:46.513Z,27.48
2023-04-21T03:07:14.509Z,22.35
2023-04-21T03:09:42.009Z,23.55
2023-04-21T03:12:09.505Z,26.13
2023-04-21T03:14:36.940Z,39.85
2023-04-21T03:17:04.397Z,34.65
2023-04-21T03:19:31.771Z,32.25
2023-04-21T03:21:59.294Z,33.50
2023-04-21T03:24:26.657Z,34.13
2023-04-21T03:26:54.145Z,28.92
2023-04-21T03:29:21.836Z,28.27
2023-04-21T03:31:50.119Z,26.40
2023-04-21T03:34:17.560Z,27.25
2023-04-21T03:36:45.028Z,24.45
2023-04-21T03:39:19.676Z,26.73
2023-04-21T03:41:49.697Z,22.20
2023-04-21T03:44:17.148Z,25.98
2023-04-21T03:46:44.608Z,26.42
2023-04-21T03:49:12.136Z,25.83
2023-04-21T03:51:39.410Z,21.13
2023-04-21T03:54:07.392Z,23.30
2023-04-21T03:56:34.888Z,23.95
2023-04-21T03:59:03.449Z,22.50
2023-04-21T04:01:31.519Z,29.15
2023-04-21T04:03:58.928Z,26.88
2023-04-21T04:06:26.917Z,26.88
2023-04-21T04:08:55.397Z,24.05
2023-04-21T04:11:22.924Z,26.40
2023-04-21T04:13:50.594Z,27.58
2023-04-21T04:16:18.495Z,26.65
2023-04-21T04:18:46.001Z,27.88
2023-04-21T04:21:13.177Z,26.27
2023-04-21T04:23:40.708Z,23.10
2023-04-21T04:26:09.673Z,26.25
2023-04-21T04:28:37.543Z,29.25
2023-04-21T04:31:05.761Z,21.98
2023-04-21T04:33:34.083Z,23.13
2023-04-21T04:36:02.211Z,29.42
2023-04-21T04:38:30.622Z,28.48
2023-04-21T04:40:59.196Z,30.00
2023-04-21T04:43:26.519Z,29.35
2023-04-21T04:45:54.076Z,28.88
2023-04-21T04:48:24.724Z,31.75
2023-04-21T04:50:52.954Z,31.10
2023-04-21T04:53:20.476Z,29.73
2023-04-21T04:55:48.034Z,31.63
2023-04-21T04:58:17.420Z,28.55
2023-04-21T05:00:44.786Z,39.10
2023-04-21T05:03:12.437Z,35.15
2023-04-21T05:05:39.540Z,33.65
2023-04-21T05:08:06.639Z,32.22
2023-04-21T05:10:34.115Z,32.15
2023-04-21T05:13:01.642Z,36.67
2023-04-21T05:15:29.211Z,39.90
2023-04-21T05:17:56.697Z,34.05
2023-04-21T05:20:24.182Z,39.17
2023-04-21T05:22:51.172Z,38.72
2023-04-21T05:25:18.422Z,40.35
2023-04-21T05:27:45.887Z,51.85
2023-04-21T05:30:13.377Z,55.15
2023-04-21T05:32:41.791Z,46.45
2023-04-21T05:35:09.328Z,36.60
2023-04-21T05:37:36.888Z,33.83
2023-04-21T05:40:06.919Z,36.65
2023-04-21T05:42:34.176Z,36.40
2023-04-21T05:45:01.666Z,37.75
2023-04-21T05:47:29.098Z,37.55
2023-04-21T05:49:56.571Z,40.30
2023-04-21T05:52:24.000Z,41.80
2023-04-21T05:54:51.442Z,39.58
2023-04-21T05:57:18.895Z,42.10
2023-04-21T05:59:46.400Z,34.50
2023-04-21T06:02:13.993Z,38.00
2023-04-21T06:04:41.451Z,41.67
2023-04-21T06:07:13.244Z,37.50
2023-04-21T06:09:41.725Z,37.78
2023-04-21T06:12:09.298Z,37.55
2023-04-21T06:14:36.943Z,41.58
2023-04-21T06:17:04.161Z,40.35
2023-04-21T06:19:31.598Z,40.45
2023-04-21T06:21:59.193Z,39.55
2023-04-21T06:24:26.590Z,38.72
2023-04-21T06:26:55.162Z,36.03
2023-04-21T06:29:22.508Z,36.22
2023-04-21T06:31:56.593Z,39.83
2023-04-21T06:34:24.081Z,38.90
2023-04-21T06:36:51.604Z,33.47
2023-04-21T06:39:18.965Z,37.10
2023-04-21T06:41:46.484Z,34.83
2023-04-21T06:44:14.943Z,35.70
2023-04-21T06:46:42.526Z,33.13
2023-04-21T06:49:09.981Z,35.55
2023-04-21T06:51:38.498Z,34.70
2023-04-21T06:54:07.880Z,31.08
2023-04-21T06:56:36.610Z,32.45
2023-04-21T06:59:03.796Z,36.30
2023-04-21T07:01:31.394Z,33.28
2023-04-21T07:04:07.159Z,30.55
2023-04-21T07:06:39.478Z,30.67
2023-04-21T07:09:06.878Z,35.83
2023-04-21T07:11:34.398Z,34.15
2023-04-21T07:14:02.587Z,30.48
2023-04-21T07:16:31.224Z,30.42
2023-04-21T07:18:58.499Z,33.97
2023-04-21T07:21:25.788Z,29.77
2023-04-21T07:23:53.125Z,29.42
2023-04-21T07:26:20.235Z,35.00
2023-04-21T07:28:47.631Z,30.10
2023-04-21T07:31:14.723Z,33.40
2023-04-21T07:33:43.017Z,28.55
2023-04-21T07:36:10.925Z,29.70
2023-04-21T07:38:38.670Z,30.60
2023-04-21T07:41:07.174Z,31.75
2023-04-21T07:43:34.417Z,28.30
2023-04-21T07:46:01.978Z,30.75
2023-04-21T07:48:29.365Z,28.83
2023-04-21T07:51:00.803Z,31.38
2023-04-21T07:53:28.489Z,35.60
2023-04-21T07:55:55.827Z,29.40
2023-04-21T07:58:23.524Z,26.58
2023-04-21T08:00:51.776Z,33.90
2023-04-21T08:03:20.382Z,29.83
2023-04-21T08:05:49.455Z,31.55
2023-04-21T08:08:20.581Z,27.55
2023-04-21T08:10:49.221Z,29.50
2023-04-21T08:13:16.354Z,29.55
2023-04-21T08:15:58.214Z,29.00
2023-04-21T08:18:26.620Z,30.02
2023-04-21T08:20:57.725Z,27.27
2023-04-21T08:23:25.082Z,28.27
2023-04-21T08:25:52.453Z,25.33
2023-04-21T08:28:19.956Z,25.02
2023-04-21T08:30:47.412Z,28.05
2023-04-21T08:33:14.928Z,29.20
2023-04-21T08:35:54.883Z,26.65
2023-04-21T08:38:29.859Z,25.25
2023-04-21T08:41:00.250Z,25.58
2023-04-21T08:43:29.636Z,27.27
2023-04-21T08:45:58.287Z,25.58
2023-04-21T08:48:34.145Z,24.20
2023-04-21T08:51:02.633Z,29.38
2023-04-21T08:53:30.843Z,25.67
2023-04-21T08:56:10.175Z,27.25
2023-04-21T08:58:39.050Z,24.65
2023-04-21T09:01:24.952Z,23.08
2023-04-21T09:03:54.539Z,23.98
2023-04-21T09:06:22.183Z,25.38
2023-04-21T09:08:56.778Z,18.70
2023-04-21T09:11:23.955Z,23.40
2023-04-21T09:13:51.415Z,23.58
2023-04-21T09:16:22.004Z,20.10
2023-04-21T09:18:50.746Z,21.85
2023-04-21T09:21:20.176Z,22.65
2023-04-21T09:23:52.965Z,21.67
2023-04-21T09:26:24.451Z,20.40
2023-04-21T09:28:53.382Z,22.52
2023-04-21T09:31:25.721Z,19.02
2023-04-21T09:34:01.191Z,20.10
2023-04-21T09:36:31.002Z,21.45
2023-04-21T09:41:33.325Z,25.92
2023-04-21T09:44:02.125Z,22.17
2023-04-21T09:46:38.774Z,14.25
2023-04-21T09:49:07.381Z,19.90
2023-04-21T09:54:28.320Z,21.20
2023-04-21T09:56:59.841Z,15.95
2023-04-21T09:59:45.551Z,14.75
2023-04-21T10:02:21.455Z,12.55
2023-04-21T10:04:49.427Z,47.80
2023-04-21T10:07:17.021Z,54.72
2023-04-21T10:09:49.391Z,16.30
2023-04-21T10:12:20.139Z,32.17
2023-04-21T10:14:54.134Z,17.35
2023-04-21T10:17:26.239Z,12.80
2023-04-21T10:19:57.738Z,13.75
2023-04-21T10:22:30.402Z,12.80
2023-04-21T10:25:00.115Z,10.85
2023-04-21T10:27:35.897Z,11.65
2023-04-21T10:30:29.212Z,11.55
2023-04-21T10:33:06.643Z,10.98
2023-04-21T10:36:03.455Z,11.23
2023-04-21T10:38:44.575Z,12.25
2023-04-21T10:41:28.781Z,24.17
2023-04-21T10:44:14.159Z,15.70
2023-04-21T10:46:49.599Z,11.90
2023-04-21T10:49:38.853Z,11.23
2023-04-21T10:52:12.497Z,13.02
2023-04-21T10:57:20.815Z,13.48
2023-04-21T10:59:55.555Z,10.50
2023-04-21T11:02:23.200Z,10.50
2023-04-21T11:04:55.196Z,11.77
2023-04-21T11:07:26.420Z,12.98
2023-04-21T11:10:02.394Z,10.48
2023-04-21T11:12:48.396Z,10.35
2023-04-21T11:15:17.705Z,12.30
2023-04-21T11:17:47.392Z,23.42
2023-04-21T11:20:14.634Z,11.95
2023-04-21T11:22:43.067Z,12.27
2023-04-21T11:25:18.849Z,8.75
2023-04-21T11:27:56.940Z,19.95
2023-04-21T11:30:36.104Z,19.08
2023-04-21T11:33:04.529Z,15.50
2023-04-21T11:35:32.410Z,23.52
2023-04-21T11:38:06.136Z,10.63
2023-04-21T11:43:22.901Z,9.65
2023-04-21T11:45:51.559Z,8.15
2023-04-21T11:48:20.032Z,8.48
2023-04-21T11:50:51.514Z,6.63
2023-04-21T11:53:19.769Z,13.52
2023-04-21T11:55:47.270Z,8.65
2023-04-21T11:58:21.668Z,10.35
2023-04-21T12:00:51.476Z,10.52
2023-04-21T12:03:21.093Z,15.18
2023-04-21T12:05:48.474Z,8.32
2023-04-21T12:08:16.776Z,10.10
2023-04-21T12:10:49.083Z,9.07
2023-04-21T12:13:28.224Z,13.50
2023-04-21T12:15:55.786Z,10.80
2023-04-21T12:18:28.622Z,11.07
2023-04-21T12:20:55.751Z,8.77
2023-04-21T12:23:22.829Z,7.93
2023-04-21T12:25:51.616Z,10.25
2023-04-21T12:28:19.069Z,7.82
2023-04-21T12:30:46.366Z,7.63
2023-04-21T12:33:13.659Z,10.43
2023-04-21T12:35:41.501Z,11.85
2023-04-21T12:38:08.789Z,14.45
2023-04-21T12:40:36.218Z,12.23
2023-04-21T12:43:03.895Z,23.23
2023-04-21T12:45:32.838Z,9.30
2023-04-21T12:48:00.644Z,34.28
2023-04-21T12:50:28.270Z,26.38
2023-04-21T12:52:55.637Z,12.38
2023-04-21T12:55:23.911Z,7.68
2023-04-21T12:57:53.152Z,8.60
2023-04-21T13:00:21.079Z,6.70
2023-04-21T13:02:49.791Z,9.73
2023-04-21T13:05:17.143Z,8.25
2023-04-21T13:07:44.581Z,10.32
2023-04-21T13:10:14.181Z,9.18
2023-04-21T13:12:43.473Z,7.13
2023-04-21T13:15:11.318Z,10.20
2023-04-21T13:17:38.913Z,12.48
2023-04-21T13:20:07.576Z,6.88
2023-04-21T13:22:36.156Z,7.15
2023-04-21T13:25:04.792Z,10.45
2023-04-21T13:27:33.700Z,11.68
2023-04-21T13:30:01.509Z,10.65
2023-04-21T13:32:30.907Z,14.20
2023-04-21T13:34:58.580Z,8.52
2023-04-21T13:37:27.806Z,7.78
2023-04-21T13:39:55.270Z,9.13
2023-04-21T13:42:22.709Z,6.78
2023-04-21T13:44:50.233Z,7.72
2023-04-21T13:47:18.990Z,8.02
2023-04-21T13:49:47.096Z,12.45
2023-04-21T13:52:14.566Z,9.75
2023-04-21T13:54:43.043Z,7.85
2023-04-21T13:57:11.004Z,8.07
2023-04-21T13:59:39.188Z,8.00
2023-04-21T14:02:06.538Z,7.32
2023-04-21T14:04:33.977Z,10.27
2023-04-21T14:07:04.823Z,19.85
2023-04-21T14:09:32.537Z,7.70
2023-04-21T14:11:59.900Z,6.65
2023-04-21T14:14:37.872Z,7.90
2023-04-21T14:17:07.707Z,7.78
2023-04-21T14:19:36.117Z,8.48
2023-04-21T14:22:05.209Z,6.45
2023-04-21T14:24:33.605Z,8.98
2023-04-21T14:27:07.296Z,6.88
2023-04-21T14:29:35.087Z,9.77
2023-04-21T14:32:02.679Z,9.40
2023-04-21T14:34:32.224Z,6.03
2023-04-21T14:37:00.884Z,6.63
2023-04-21T14:39:30.805Z,9.93
2023-04-21T14:41:58.206Z,10.65
2023-04-21T14:44:27.702Z,7.40
2023-04-21T14:47:06.123Z,6.38
2023-04-21T14:49:39.465Z,6.30
2023-04-21T14:52:07.489Z,7.85
2023-04-21T14:54:35.039Z,13.90
2023-04-21T14:57:16.881Z,15.25
2023-04-21T14:59:49.618Z,8.43
2023-04-21T15:02:17.199Z,7.15
2023-04-21T15:04:45.157Z,9.48
2023-04-21T15:07:12.954Z,9.95
2023-04-21T15:09:41.496Z,6.07
2023-04-21T15:12:08.773Z,7.65
2023-04-21T15:14:36.302Z,6.95
2023-04-21T15:17:04.036Z,6.43
2023-04-21T15:19:32.928Z,6.97
2023-04-21T15:22:00.758Z,9.55
2023-04-21T15:24:28.059Z,11.18
2023-04-21T15:26:55.749Z,8.07
2023-04-21T15:29:24.005Z,9.57
2023-04-21T15:31:57.744Z,7.60
2023-04-21T15:34:27.096Z,9.02
2023-04-21T15:36:55.013Z,11.15
2023-04-21T15:39:23.550Z,6.80
2023-04-21T15:41:55.265Z,9.20
2023-04-21T15:44:23.592Z,14.90
2023-04-21T15:46:51.398Z,8.85
2023-04-21T15:49:20.026Z,6.55
2023-04-21T15:51:47.356Z,9.38
2023-04-21T15:54:16.401Z,7.47
2023-04-21T15:56:44.043Z,8.30
2023-04-21T15:59:11.332Z,9.13
2023-04-21T16:01:40.101Z,8.90
2023-04-21T16:04:08.694Z,9.98
2023-04-21T16:06:48.770Z,11.05
2023-04-21T16:09:22.945Z,7.07
2023-04-21T16:11:51.762Z,6.85
2023-04-21T16:14:19.562Z,35.03
2023-04-21T16:16:47.274Z,9.48
2023-04-21T16:19:16.799Z,34.58
2023-04-21T16:21:44.159Z,17.17
2023-04-21T16:24:12.758Z,14.30
2023-04-21T16:26:41.662Z,9.15
2023-04-21T16:29:09.173Z,11.48
2023-04-21T16:31:37.773Z,19.80
2023-04-21T16:34:06.177Z,18.67
2023-04-21T16:36:33.755Z,45.15
2023-04-21T16:39:01.181Z,26.48
2023-04-21T16:41:32.486Z,13.20
2023-04-21T16:44:00.042Z,14.30
2023-04-21T16:46:27.422Z,9.85
2023-04-21T16:48:57.085Z,138.73
2023-04-21T16:51:26.347Z,41.75
2023-04-21T16:53:54.960Z,51.75
2023-04-21T16:56:23.004Z,116.60
2023-04-21T16:58:53.444Z,192.45
2023-04-21T17:01:20.945Z,181.90
2023-04-21T17:03:49.610Z,189.15
2023-04-21T17:06:21.477Z,171.07
2023-04-21T17:08:50.038Z,154.75
2023-04-21T17:11:17.427Z,333.67
2023-04-21T17:13:44.760Z,414.05
2023-04-21T17:16:12.224Z,545.45
2023-04-21T17:18:39.770Z,471.77
2023-04-21T17:21:07.530Z,440.30
2023-04-21T17:23:34.676Z,357.15
2023-04-21T17:26:04.138Z,180.93
2023-04-21T17:28:32.850Z,144.43
2023-04-21T17:31:13.839Z,271.05
2023-04-21T17:33:42.941Z,341.65
2023-04-21T17:36:10.456Z,163.45
2023-04-21T17:38:38.098Z,99.25
2023-04-21T17:41:07.147Z,90.75
2023-04-21T17:43:34.930Z,311.70
2023-04-21T17:46:02.368Z,332.17
2023-04-21T17:48:29.735Z,282.15
2023-04-21T17:50:57.145Z,492.73
2023-04-21T17:53:24.658Z,321.00
2023-04-21T17:55:52.258Z,203.52
2023-04-21T17:58:19.834Z,124.03
2023-04-21T18:00:48.860Z,43.53
2023-04-21T18:03:18.176Z,30.67
2023-04-21T18:05:45.522Z,27.25
2023-04-21T18:08:15.678Z,36.90
2023-04-21T18:10:43.010Z,17.60
2023-04-21T18:13:10.864Z,23.27
2023-04-21T18:15:39.673Z,34.70
2023-04-21T18:18:09.351Z,88.38
2023-04-21T18:20:39.421Z,102.55
2023-04-21T18:23:08.645Z,105.13
2023-04-21T18:25:42.641Z,90.30
2023-04-21T18:28:14.698Z,96.50
2023-04-21T18:30:43.010Z,82.03
2023-04-21T18:33:11.911Z,28.35
2023-04-21T18:35:42.383Z,15.57
2023-04-21T18:38:12.527Z,15.57
2023-04-21T18:40:41.451Z,16.63
2023-04-21T18:43:11.205Z,16.83
2023-04-21T18:45:40.409Z,18.77
2023-04-21T18:48:09.168Z,24.20
2023-04-21T18:50:42.678Z,27.20
2023-04-21T18:53:14.388Z,18.65
2023-04-21T18:55:43.211Z,15.93
2023-04-21T18:58:11.292Z,16.45
2023-04-21T19:00:39.482Z,17.15
2023-04-21T19:03:08.276Z,14.73
2023-04-21T19:05:40.873Z,18.20
2023-04-21T19:08:10.713Z,17.52
2023-04-21T19:10:39.232Z,17.20
2023-04-21T19:13:08.710Z,23.02
2023-04-21T19:15:37.141Z,19.63
2023-04-21T19:18:04.796Z,22.25
2023-04-21T19:20:32.730Z,22.70
2023-04-21T19:23:00.919Z,27.33
2023-04-21T19:25:28.717Z,31.45
2023-04-21T19:27:56.618Z,21.55
2023-04-21T19:30:24.962Z,26.20
2023-04-21T19:32:58.703Z,33.83
2023-04-21T19:37:54.824Z,40.95
2023-04-21T19:40:29.995Z,25.77
2023-04-21T19:43:02.315Z,41.45
2023-04-21T19:45:30.609Z,34.80
2023-04-21T19:48:00.400Z,37.17
2023-04-21T19:50:28.917Z,32.35
2023-04-21T19:52:59.592Z,31.40
2023-04-21T19:55:27.999Z,54.97
2023-04-21T19:58:02.008Z,40.20
2023-04-21T20:00:30.617Z,44.55
2023-04-21T20:02:58.929Z,43.88
2023-04-21T20:05:26.635Z,55.33
2023-04-21T20:07:54.697Z,54.28
2023-04-21T20:10:22.924Z,66.57
2023-04-21T20:12:51.900Z,59.63
2023-04-21T20:15:20.513Z,45.63
2023-04-21T20:17:49.802Z,49.60
2023-04-21T20:20:18.417Z,51.00
2023-04-21T20:22:48.171Z,50.58
2023-04-21T20:25:16.271Z,45.63
2023-04-21T20:27:45.239Z,46.03
2023-04-21T20:30:13.099Z,46.80
2023-04-21T20:32:40.397Z,44.30
2023-04-21T20:35:12.180Z,44.40
2023-04-21T20:37:40.678Z,42.50
2023-04-21T20:40:09.272Z,58.40
2023-04-21T20:42:36.832Z,40.03
2023-04-21T20:45:06.544Z,30.85
2023-04-21T20:47:34.436Z,31.50
2023-04-21T20:50:04.937Z,38.78
2023-04-21T20:52:32.464Z,50.83
2023-04-21T20:54:59.943Z,40.38
2023-04-21T20:57:28.297Z,34.92
2023-04-21T20:59:56.839Z,30.70
2023-04-21T21:02:25.122Z,46.25
2023-04-21T21:04:52.596Z,49.92
2023-04-21T21:07:20.067Z,68.68
2023-04-21T21:09:47.540Z,53.67
2023-04-21T21:12:14.988Z,40.45
2023-04-21T21:14:42.512Z,50.05
2023-04-21T21:17:13.182Z,53.90
2023-04-21T21:19:41.909Z,48.60
2023-04-21T21:22:09.656Z,49.97
2023-04-21T21:24:36.907Z,49.85
2023-04-21T21:27:04.452Z,48.40
2023-04-21T21:29:31.764Z,42.17
2023-04-21T21:32:00.262Z,47.50
2023-04-21T21:34:27.795Z,48.03
2023-04-21T21:36:55.198Z,47.40
2023-04-21T21:39:22.661Z,47.22
2023-04-21T21:41:51.093Z,40.83
2023-04-21T21:44:19.677Z,46.40
2023-04-21T21:46:48.124Z,48.20
2023-04-21T21:49:22.774Z,45.03
2023-04-21T21:51:51.178Z,44.47
2023-04-21T21:54:19.593Z,47.38
2023-04-21T21:56:48.934Z,49.05
2023-04-21T21:59:16.765Z,43.65
2023-04-21T22:01:45.300Z,54.08
2023-04-21T22:04:14.752Z,55.10
2023-04-21T22:06:42.707Z,55.90
2023-04-21T22:09:10.144Z,61.78
2023-04-21T22:11:37.673Z,55.58
2023-04-21T22:14:21.155Z,51.38
2023-04-21T22:17:03.269Z,45.45
2023-04-21T22:19:31.525Z,45.97
2023-04-21T22:21:59.067Z,64.07
2023-04-21T22:24:32.092Z,52.33
2023-04-21T22:27:05.880Z,46.58
2023-04-21T22:29:33.192Z,52.63
2023-04-21T22:32:00.809Z,54.92
2023-04-21T22:34:34.246Z,47.88
2023-04-21T22:37:02.592Z,44.78
2023-04-21T22:39:30.368Z,45.08
2023-04-21T22:41:57.966Z,38.97
2023-04-21T22:44:25.704Z,53.05
2023-04-21T22:46:55.080Z,41.75
2023-04-21T22:49:23.027Z,46.70
2023-04-21T22:51:56.638Z,55.80
2023-04-21T22:56:52.244Z,53.30
2023-04-21T22:59:20.623Z,158.38
2023-04-21T23:01:49.132Z,123.35
2023-04-21T23:04:16.651Z,65.50
2023-04-21T23:06:44.108Z,34.65
2023-04-21T23:09:11.514Z,36.33
2023-04-21T23:11:39.907Z,33.17
2023-04-21T23:14:07.463Z,35.47
2023-04-21T23:16:37.314Z,36.72
2023-04-21T23:19:04.376Z,32.63
2023-04-21T23:21:32.057Z,30.92
2023-04-21T23:24:00.480Z,35.20
2023-04-21T23:26:27.829Z,32.22
2023-04-21T23:28:55.276Z,31.25
2023-04-21T23:31:22.811Z,31.00
2023-04-21T23:33:52.217Z,28.92
2023-04-21T23:36:20.790Z,29.05
2023-04-21T23:38:48.226Z,30.52
2023-04-21T23:41:16.743Z,32.45
2023-04-21T23:43:45.306Z,31.75
2023-04-21T23:46:19.799Z,25.48
2023-04-21T23:48:47.136Z,29.42
2023-04-21T23:51:14.779Z,29.42
2023-04-21T23:53:42.101Z,32.08
2023-04-21T23:56:09.543Z,31.92
2023-04-21T23:58:37.033Z,32.17
